CheckWX is a tool to help pilots better visualize weather data.  It is not intended as a substitute for an official pre-flight weather briefing.

00:53:00 UTC

8W2 METAR
New Market Airport
New Market, Virginia, USA
Current

18 mins ago

K8W2 240035Z AUTO 00000KT 10SM CLR 04/M07 A3023 RMK AO1 T00441071
Observed
Mar-24 @ 00:35 UTC
Visibility
10 SM
Flight Rules
VFR
Cloud Levels
  • Clear skies
Temperature
C / 39°F
Dewpoint
-7°C / 19°F
Humidity
45%
Altimeter
30.23" Hg
Pressure
1023.72 hPa
Previous

38 mins ago

K8W2 240015Z AUTO 31003KT 10SM CLR 05/M07 A3023 RMK AO1 T00461067
Observed
Mar-24 @ 00:15 UTC
Wind
  • 310° at 3 KTS
Visibility
10 SM
Flight Rules
VFR
Cloud Levels
  • Clear skies
Temperature
C / 41°F
Dewpoint
-7°C / 19°F
Humidity
42%
Altimeter
30.23" Hg
Pressure
1023.72 hPa
Previous

58 mins ago

K8W2 232355Z AUTO 32003KT 10SM CLR 05/M07 A3023 RMK AO1 T00531066 10112 20052
Observed
Mar-23 @ 23:55 UTC
Wind
  • 320° at 3 KTS
Visibility
10 SM
Flight Rules
VFR
Cloud Levels
  • Clear skies
Temperature
C / 41°F
Dewpoint
-7°C / 19°F
Humidity
42%
Altimeter
30.23" Hg
Pressure
1023.72 hPa